sensor_id;sensor_type;location;lat;lon;timestamp;P1;durP1;ratioP1;P2;durP2;ratioP2
16472;SDS011;8347;52.486;13.432;2024-02-26T00:00:05;18.80;;;12.43;;
16472;SDS011;8347;52.486;13.432;2024-02-26T00:02:54;22.17;;;11.70;;
16472;SDS011;8347;52.486;13.432;2024-02-26T00:05:41;15.50;;;10.98;;
16472;SDS011;8347;52.486;13.432;2024-02-26T00:08:28;19.63;;;11.77;;
16472;SDS011;8347;52.486;13.432;2024-02-26T00:11:14;17.13;;;10.57;;
16472;SDS011;8347;52.486;13.432;2024-02-26T00:14:01;16.25;;;10.25;;
16472;SDS011;8347;52.486;13.432;2024-02-26T00:16:48;14.02;;;10.32;;
16472;SDS011;8347;52.486;13.432;2024-02-26T00:19:35;15.20;;;10.95;;
16472;SDS011;8347;52.486;13.432;2024-02-26T00:22:21;19.27;;;11.38;;
16472;SDS011;8347;52.486;13.432;2024-02-26T00:25:08;18.17;;;12.07;;
16472;SDS011;8347;52.486;13.432;2024-02-26T00:27:54;17.25;;;10.75;;
16472;SDS011;8347;52.486;13.432;2024-02-26T00:30:41;16.13;;;11.25;;
16472;SDS011;8347;52.486;13.432;2024-02-26T00:33:27;18.17;;;11.35;;
16472;SDS011;8347;52.486;13.432;2024-02-26T00:36:13;19.77;;;11.80;;
16472;SDS011;8347;52.486;13.432;2024-02-26T00:39:00;16.00;;;10.88;;
16472;SDS011;8347;52.486;13.432;2024-02-26T00:41:46;11.50;;;8.18;;
16472;SDS011;8347;52.486;13.432;2024-02-26T00:44:33;11.75;;;8.10;;
16472;SDS011;8347;52.486;13.432;2024-02-26T00:47:19;13.15;;;8.38;;
16472;SDS011;8347;52.486;13.432;2024-02-26T00:50:06;12.00;;;8.07;;
16472;SDS011;8347;52.486;13.432;2024-02-26T00:52:52;14.85;;;9.10;;
16472;SDS011;8347;52.486;13.432;2024-02-26T00:55:39;12.88;;;9.23;;
16472;SDS011;8347;52.486;13.432;2024-02-26T00:58:25;10.68;;;8.02;;
16472;SDS011;8347;52.486;13.432;2024-02-26T01:01:12;10.85;;;7.95;;
16472;SDS011;8347;52.486;13.432;2024-02-26T01:03:58;15.70;;;9.70;;
16472;SDS011;8347;52.486;13.432;2024-02-26T01:06:44;12.15;;;9.32;;
16472;SDS011;8347;52.486;13.432;2024-02-26T01:09:31;13.35;;;9.52;;
16472;SDS011;8347;52.486;13.432;2024-02-26T01:12:17;14.55;;;9.32;;
16472;SDS011;8347;52.486;13.432;2024-02-26T01:15:04;15.48;;;10.05;;
16472;SDS011;8347;52.486;13.432;2024-02-26T01:17:51;14.40;;;9.32;;
16472;SDS011;8347;52.486;13.432;2024-02-26T01:20:37;13.50;;;7.78;;
16472;SDS011;8347;52.486;13.432;2024-02-26T01:23:24;10.35;;;8.35;;
16472;SDS011;8347;52.486;13.432;2024-02-26T01:26:10;10.90;;;7.75;;
16472;SDS011;8347;52.486;13.432;2024-02-26T01:28:56;13.15;;;8.85;;
16472;SDS011;8347;52.486;13.432;2024-02-26T01:31:43;10.13;;;8.02;;
16472;SDS011;8347;52.486;13.432;2024-02-26T01:34:29;11.25;;;8.73;;
16472;SDS011;8347;52.486;13.432;2024-02-26T01:37:16;12.57;;;7.82;;
16472;SDS011;8347;52.486;13.432;2024-02-26T01:40:03;13.45;;;8.65;;
16472;SDS011;8347;52.486;13.432;2024-02-26T01:42:50;11.27;;;7.10;;
16472;SDS011;8347;52.486;13.432;2024-02-26T01:45:38;10.00;;;7.03;;
16472;SDS011;8347;52.486;13.432;2024-02-26T01:48:25;9.38;;;7.40;;
16472;SDS011;8347;52.486;13.432;2024-02-26T01:51:12;8.77;;;7.25;;
16472;SDS011;8347;52.486;13.432;2024-02-26T01:53:59;10.88;;;7.40;;
16472;SDS011;8347;52.486;13.432;2024-02-26T01:56:46;14.65;;;7.88;;
16472;SDS011;8347;52.486;13.432;2024-02-26T01:59:32;12.77;;;7.78;;
16472;SDS011;8347;52.486;13.432;2024-02-26T02:02:20;10.88;;;6.95;;
16472;SDS011;8347;52.486;13.432;2024-02-26T02:05:06;8.63;;;6.90;;
16472;SDS011;8347;52.486;13.432;2024-02-26T02:07:54;9.55;;;7.32;;
16472;SDS011;8347;52.486;13.432;2024-02-26T02:10:41;12.07;;;7.57;;
16472;SDS011;8347;52.486;13.432;2024-02-26T02:13:28;10.55;;;6.75;;
16472;SDS011;8347;52.486;13.432;2024-02-26T02:16:14;8.75;;;6.90;;
16472;SDS011;8347;52.486;13.432;2024-02-26T02:19:01;11.68;;;7.35;;
16472;SDS011;8347;52.486;13.432;2024-02-26T02:21:48;10.27;;;6.78;;
16472;SDS011;8347;52.486;13.432;2024-02-26T02:24:34;12.80;;;8.40;;
16472;SDS011;8347;52.486;13.432;2024-02-26T02:27:20;10.00;;;6.00;;
16472;SDS011;8347;52.486;13.432;2024-02-26T02:30:07;9.73;;;7.00;;
16472;SDS011;8347;52.486;13.432;2024-02-26T02:32:55;10.98;;;6.70;;
16472;SDS011;8347;52.486;13.432;2024-02-26T02:35:41;7.00;;;6.07;;
16472;SDS011;8347;52.486;13.432;2024-02-26T02:38:28;8.55;;;6.35;;
16472;SDS011;8347;52.486;13.432;2024-02-26T02:41:16;10.07;;;7.30;;
16472;SDS011;8347;52.486;13.432;2024-02-26T02:44:02;8.77;;;6.38;;
16472;SDS011;8347;52.486;13.432;2024-02-26T02:46:48;7.95;;;6.35;;
16472;SDS011;8347;52.486;13.432;2024-02-26T02:49:37;11.80;;;7.82;;
16472;SDS011;8347;52.486;13.432;2024-02-26T02:52:24;8.23;;;5.90;;
16472;SDS011;8347;52.486;13.432;2024-02-26T02:55:11;6.15;;;5.20;;
16472;SDS011;8347;52.486;13.432;2024-02-26T02:57:58;9.38;;;5.55;;
16472;SDS011;8347;52.486;13.432;2024-02-26T03:00:44;6.50;;;4.55;;
16472;SDS011;8347;52.486;13.432;2024-02-26T03:03:31;10.98;;;5.60;;
16472;SDS011;8347;52.486;13.432;2024-02-26T03:06:17;9.27;;;5.28;;
16472;SDS011;8347;52.486;13.432;2024-02-26T03:09:04;7.50;;;5.53;;
16472;SDS011;8347;52.486;13.432;2024-02-26T03:11:50;8.32;;;5.43;;
16472;SDS011;8347;52.486;13.432;2024-02-26T03:14:37;6.63;;;5.38;;
16472;SDS011;8347;52.486;13.432;2024-02-26T03:17:23;8.35;;;5.55;;
16472;SDS011;8347;52.486;13.432;2024-02-26T03:20:12;8.52;;;4.85;;
16472;SDS011;8347;52.486;13.432;2024-02-26T03:22:59;10.35;;;5.82;;
16472;SDS011;8347;52.486;13.432;2024-02-26T03:25:45;7.78;;;5.47;;
16472;SDS011;8347;52.486;13.432;2024-02-26T03:28:33;11.82;;;5.93;;
16472;SDS011;8347;52.486;13.432;2024-02-26T03:31:19;8.63;;;5.82;;
16472;SDS011;8347;52.486;13.432;2024-02-26T03:34:07;9.55;;;5.55;;
16472;SDS011;8347;52.486;13.432;2024-02-26T03:36:53;6.47;;;5.00;;
16472;SDS011;8347;52.486;13.432;2024-02-26T03:39:40;8.20;;;5.63;;
16472;SDS011;8347;52.486;13.432;2024-02-26T03:42:26;9.77;;;6.28;;
16472;SDS011;8347;52.486;13.432;2024-02-26T03:45:13;6.53;;;5.65;;
16472;SDS011;8347;52.486;13.432;2024-02-26T03:47:59;8.50;;;5.78;;
16472;SDS011;8347;52.486;13.432;2024-02-26T03:50:45;7.40;;;5.20;;
16472;SDS011;8347;52.486;13.432;2024-02-26T03:53:32;8.95;;;5.50;;
16472;SDS011;8347;52.486;13.432;2024-02-26T03:56:18;8.02;;;5.43;;
16472;SDS011;8347;52.486;13.432;2024-02-26T03:59:04;9.65;;;5.65;;
16472;SDS011;8347;52.486;13.432;2024-02-26T04:01:51;8.20;;;5.38;;
16472;SDS011;8347;52.486;13.432;2024-02-26T04:04:38;7.13;;;5.30;;
16472;SDS011;8347;52.486;13.432;2024-02-26T04:07:24;8.18;;;5.40;;
16472;SDS011;8347;52.486;13.432;2024-02-26T04:10:10;7.70;;;5.50;;
16472;SDS011;8347;52.486;13.432;2024-02-26T04:12:57;7.68;;;5.90;;
16472;SDS011;8347;52.486;13.432;2024-02-26T04:15:44;8.55;;;6.07;;
16472;SDS011;8347;52.486;13.432;2024-02-26T04:18:32;8.25;;;5.15;;
16472;SDS011;8347;52.486;13.432;2024-02-26T04:21:19;7.53;;;6.03;;
16472;SDS011;8347;52.486;13.432;2024-02-26T04:24:05;9.02;;;5.65;;
16472;SDS011;8347;52.486;13.432;2024-02-26T04:26:52;8.15;;;6.10;;
16472;SDS011;8347;52.486;13.432;2024-02-26T04:29:39;9.38;;;5.43;;
16472;SDS011;8347;52.486;13.432;2024-02-26T04:32:25;7.43;;;5.90;;
16472;SDS011;8347;52.486;13.432;2024-02-26T04:35:13;7.57;;;5.93;;
16472;SDS011;8347;52.486;13.432;2024-02-26T04:38:00;11.00;;;7.15;;
16472;SDS011;8347;52.486;13.432;2024-02-26T04:40:46;9.70;;;6.10;;
16472;SDS011;8347;52.486;13.432;2024-02-26T04:43:33;6.75;;;5.97;;
16472;SDS011;8347;52.486;13.432;2024-02-26T04:46:20;7.30;;;5.93;;
16472;SDS011;8347;52.486;13.432;2024-02-26T04:49:07;9.27;;;6.20;;
16472;SDS011;8347;52.486;13.432;2024-02-26T04:51:53;12.25;;;7.22;;
16472;SDS011;8347;52.486;13.432;2024-02-26T04:54:40;11.10;;;7.07;;
16472;SDS011;8347;52.486;13.432;2024-02-26T04:57:27;12.32;;;6.80;;
16472;SDS011;8347;52.486;13.432;2024-02-26T05:00:13;9.20;;;6.95;;
16472;SDS011;8347;52.486;13.432;2024-02-26T05:03:00;9.60;;;6.68;;
16472;SDS011;8347;52.486;13.432;2024-02-26T05:05:47;11.35;;;7.18;;
16472;SDS011;8347;52.486;13.432;2024-02-26T05:08:33;10.38;;;7.88;;
16472;SDS011;8347;52.486;13.432;2024-02-26T05:11:21;10.10;;;7.55;;
16472;SDS011;8347;52.486;13.432;2024-02-26T05:14:08;14.55;;;9.00;;
16472;SDS011;8347;52.486;13.432;2024-02-26T05:16:54;10.50;;;7.68;;
16472;SDS011;8347;52.486;13.432;2024-02-26T05:19:41;10.25;;;8.25;;
16472;SDS011;8347;52.486;13.432;2024-02-26T05:22:28;13.80;;;9.45;;
16472;SDS011;8347;52.486;13.432;2024-02-26T05:25:15;12.23;;;7.95;;
16472;SDS011;8347;52.486;13.432;2024-02-26T05:28:01;14.32;;;8.40;;
16472;SDS011;8347;52.486;13.432;2024-02-26T05:30:48;11.30;;;7.90;;
16472;SDS011;8347;52.486;13.432;2024-02-26T05:33:34;12.23;;;8.60;;
16472;SDS011;8347;52.486;13.432;2024-02-26T05:36:20;15.93;;;10.38;;
16472;SDS011;8347;52.486;13.432;2024-02-26T05:39:07;11.82;;;8.98;;
16472;SDS011;8347;52.486;13.432;2024-02-26T05:41:56;14.10;;;10.15;;
16472;SDS011;8347;52.486;13.432;2024-02-26T05:44:42;14.48;;;9.57;;
16472;SDS011;8347;52.486;13.432;2024-02-26T05:47:29;14.00;;;9.48;;
16472;SDS011;8347;52.486;13.432;2024-02-26T05:50:17;16.27;;;10.32;;
16472;SDS011;8347;52.486;13.432;2024-02-26T05:53:03;11.80;;;8.38;;
16472;SDS011;8347;52.486;13.432;2024-02-26T05:55:50;13.38;;;9.55;;
16472;SDS011;8347;52.486;13.432;2024-02-26T05:58:36;11.57;;;8.20;;
16472;SDS011;8347;52.486;13.432;2024-02-26T06:01:22;15.05;;;9.27;;
16472;SDS011;8347;52.486;13.432;2024-02-26T06:04:10;12.95;;;9.07;;
16472;SDS011;8347;52.486;13.432;2024-02-26T06:06:58;14.55;;;9.55;;
16472;SDS011;8347;52.486;13.432;2024-02-26T06:09:44;22.60;;;10.43;;
16472;SDS011;8347;52.486;13.432;2024-02-26T06:12:30;13.88;;;9.65;;
16472;SDS011;8347;52.486;13.432;2024-02-26T06:15:17;15.48;;;9.57;;
16472;SDS011;8347;52.486;13.432;2024-02-26T06:18:03;16.42;;;10.50;;
16472;SDS011;8347;52.486;13.432;2024-02-26T06:20:50;15.70;;;9.52;;
16472;SDS011;8347;52.486;13.432;2024-02-26T06:23:37;18.20;;;10.85;;
16472;SDS011;8347;52.486;13.432;2024-02-26T06:26:24;18.65;;;10.45;;
16472;SDS011;8347;52.486;13.432;2024-02-26T06:29:14;16.70;;;10.50;;
16472;SDS011;8347;52.486;13.432;2024-02-26T06:32:01;15.40;;;11.05;;
16472;SDS011;8347;52.486;13.432;2024-02-26T06:34:47;18.83;;;10.73;;
16472;SDS011;8347;52.486;13.432;2024-02-26T06:37:34;17.45;;;11.45;;
16472;SDS011;8347;52.486;13.432;2024-02-26T06:40:20;23.38;;;11.93;;
16472;SDS011;8347;52.486;13.432;2024-02-26T06:43:07;21.75;;;12.18;;
16472;SDS011;8347;52.486;13.432;2024-02-26T06:45:53;22.63;;;13.55;;
16472;SDS011;8347;52.486;13.432;2024-02-26T06:48:40;18.23;;;11.88;;
16472;SDS011;8347;52.486;13.432;2024-02-26T06:51:27;20.95;;;11.73;;
16472;SDS011;8347;52.486;13.432;2024-02-26T06:54:13;17.33;;;12.10;;
16472;SDS011;8347;52.486;13.432;2024-02-26T06:57:00;16.35;;;11.52;;
16472;SDS011;8347;52.486;13.432;2024-02-26T06:59:46;22.25;;;11.93;;
16472;SDS011;8347;52.486;13.432;2024-02-26T07:02:33;24.38;;;12.93;;
16472;SDS011;8347;52.486;13.432;2024-02-26T07:05:19;18.05;;;12.52;;
16472;SDS011;8347;52.486;13.432;2024-02-26T07:08:06;19.98;;;12.85;;
16472;SDS011;8347;52.486;13.432;2024-02-26T07:10:52;21.75;;;13.38;;
16472;SDS011;8347;52.486;13.432;2024-02-26T07:13:39;21.77;;;13.75;;
16472;SDS011;8347;52.486;13.432;2024-02-26T07:16:26;19.67;;;12.25;;
16472;SDS011;8347;52.486;13.432;2024-02-26T07:19:13;16.65;;;12.15;;
16472;SDS011;8347;52.486;13.432;2024-02-26T07:21:59;19.55;;;12.63;;
16472;SDS011;8347;52.486;13.432;2024-02-26T07:24:47;20.73;;;12.93;;
16472;SDS011;8347;52.486;13.432;2024-02-26T07:27:34;18.10;;;12.07;;
16472;SDS011;8347;52.486;13.432;2024-02-26T07:30:20;19.20;;;12.73;;
16472;SDS011;8347;52.486;13.432;2024-02-26T07:33:06;20.10;;;12.93;;
16472;SDS011;8347;52.486;13.432;2024-02-26T07:35:53;22.88;;;13.40;;
16472;SDS011;8347;52.486;13.432;2024-02-26T07:38:40;19.25;;;12.13;;
16472;SDS011;8347;52.486;13.432;2024-02-26T07:41:26;18.75;;;12.63;;
16472;SDS011;8347;52.486;13.432;2024-02-26T07:44:13;17.60;;;12.00;;
16472;SDS011;8347;52.486;13.432;2024-02-26T07:46:59;22.98;;;13.15;;
16472;SDS011;8347;52.486;13.432;2024-02-26T07:49:45;22.60;;;13.30;;
16472;SDS011;8347;52.486;13.432;2024-02-26T07:52:32;25.67;;;15.38;;
16472;SDS011;8347;52.486;13.432;2024-02-26T07:55:19;22.45;;;14.38;;
16472;SDS011;8347;52.486;13.432;2024-02-26T07:58:05;25.23;;;16.13;;
16472;SDS011;8347;52.486;13.432;2024-02-26T08:00:52;20.83;;;13.60;;
16472;SDS011;8347;52.486;13.432;2024-02-26T08:03:39;20.73;;;13.68;;
16472;SDS011;8347;52.486;13.432;2024-02-26T08:06:25;20.02;;;14.07;;
16472;SDS011;8347;52.486;13.432;2024-02-26T08:09:12;21.88;;;13.02;;
16472;SDS011;8347;52.486;13.432;2024-02-26T08:11:58;20.67;;;14.32;;
16472;SDS011;8347;52.486;13.432;2024-02-26T08:14:45;20.50;;;13.32;;
16472;SDS011;8347;52.486;13.432;2024-02-26T08:17:31;20.80;;;13.45;;
16472;SDS011;8347;52.486;13.432;2024-02-26T08:20:18;18.35;;;12.75;;
16472;SDS011;8347;52.486;13.432;2024-02-26T08:23:05;18.67;;;12.77;;
16472;SDS011;8347;52.486;13.432;2024-02-26T08:25:51;21.10;;;13.65;;
16472;SDS011;8347;52.486;13.432;2024-02-26T08:28:38;20.67;;;13.30;;
16472;SDS011;8347;52.486;13.432;2024-02-26T08:31:25;21.40;;;13.18;;
16472;SDS011;8347;52.486;13.432;2024-02-26T08:34:13;21.20;;;13.77;;
16472;SDS011;8347;52.486;13.432;2024-02-26T08:37:00;22.25;;;13.13;;
16472;SDS011;8347;52.486;13.432;2024-02-26T08:39:46;24.15;;;13.80;;
16472;SDS011;8347;52.486;13.432;2024-02-26T08:42:33;23.80;;;14.68;;
16472;SDS011;8347;52.486;13.432;2024-02-26T08:45:20;23.83;;;14.40;;
16472;SDS011;8347;52.486;13.432;2024-02-26T08:48:06;25.95;;;13.93;;
16472;SDS011;8347;52.486;13.432;2024-02-26T08:50:53;22.90;;;13.70;;
16472;SDS011;8347;52.486;13.432;2024-02-26T08:53:40;25.58;;;15.50;;
16472;SDS011;8347;52.486;13.432;2024-02-26T08:56:26;19.45;;;13.63;;
16472;SDS011;8347;52.486;13.432;2024-02-26T08:59:13;20.23;;;13.20;;
16472;SDS011;8347;52.486;13.432;2024-02-26T09:02:02;19.98;;;12.90;;
16472;SDS011;8347;52.486;13.432;2024-02-26T09:04:48;21.02;;;14.50;;
16472;SDS011;8347;52.486;13.432;2024-02-26T09:07:36;22.48;;;13.95;;
16472;SDS011;8347;52.486;13.432;2024-02-26T09:10:23;21.83;;;13.93;;
16472;SDS011;8347;52.486;13.432;2024-02-26T09:13:10;17.33;;;12.57;;
16472;SDS011;8347;52.486;13.432;2024-02-26T09:15:56;21.52;;;14.13;;
16472;SDS011;8347;52.486;13.432;2024-02-26T09:18:44;17.65;;;12.85;;
16472;SDS011;8347;52.486;13.432;2024-02-26T09:21:31;22.05;;;13.60;;
16472;SDS011;8347;52.486;13.432;2024-02-26T09:24:17;21.17;;;14.30;;
16472;SDS011;8347;52.486;13.432;2024-02-26T09:27:04;20.38;;;13.25;;
16472;SDS011;8347;52.486;13.432;2024-02-26T09:29:51;25.83;;;14.35;;
16472;SDS011;8347;52.486;13.432;2024-02-26T09:32:37;19.23;;;12.90;;
16472;SDS011;8347;52.486;13.432;2024-02-26T09:35:24;20.63;;;12.68;;
16472;SDS011;8347;52.486;13.432;2024-02-26T09:38:12;16.88;;;11.55;;
16472;SDS011;8347;52.486;13.432;2024-02-26T09:40:59;19.15;;;12.15;;
16472;SDS011;8347;52.486;13.432;2024-02-26T09:43:45;20.65;;;13.52;;
16472;SDS011;8347;52.486;13.432;2024-02-26T09:46:32;22.08;;;13.30;;
16472;SDS011;8347;52.486;13.432;2024-02-26T09:49:19;22.23;;;12.52;;
16472;SDS011;8347;52.486;13.432;2024-02-26T09:52:07;19.42;;;11.80;;
16472;SDS011;8347;52.486;13.432;2024-02-26T09:54:57;19.25;;;11.90;;
16472;SDS011;8347;52.486;13.432;2024-02-26T09:57:46;22.27;;;12.40;;
16472;SDS011;8347;52.486;13.432;2024-02-26T10:00:36;21.88;;;12.38;;
16472;SDS011;8347;52.486;13.432;2024-02-26T10:03:28;20.02;;;12.30;;
16472;SDS011;8347;52.486;13.432;2024-02-26T10:06:20;23.17;;;12.27;;
16472;SDS011;8347;52.486;13.432;2024-02-26T10:09:06;19.17;;;11.95;;
16472;SDS011;8347;52.486;13.432;2024-02-26T10:11:55;16.05;;;11.05;;
16472;SDS011;8347;52.486;13.432;2024-02-26T10:14:42;18.02;;;11.73;;
16472;SDS011;8347;52.486;13.432;2024-02-26T10:17:28;20.23;;;11.50;;
16472;SDS011;8347;52.486;13.432;2024-02-26T10:20:18;18.10;;;10.68;;
16472;SDS011;8347;52.486;13.432;2024-02-26T10:23:07;13.73;;;9.88;;
16472;SDS011;8347;52.486;13.432;2024-02-26T10:25:54;16.40;;;10.50;;
16472;SDS011;8347;52.486;13.432;2024-02-26T10:28:41;14.82;;;10.25;;
16472;SDS011;8347;52.486;13.432;2024-02-26T10:31:28;18.05;;;10.55;;
16472;SDS011;8347;52.486;13.432;2024-02-26T10:34:15;16.50;;;9.88;;
16472;SDS011;8347;52.486;13.432;2024-02-26T10:37:02;16.15;;;10.27;;
16472;SDS011;8347;52.486;13.432;2024-02-26T10:39:50;14.07;;;9.40;;
16472;SDS011;8347;52.486;13.432;2024-02-26T10:42:36;22.90;;;10.35;;
16472;SDS011;8347;52.486;13.432;2024-02-26T10:45:23;14.68;;;9.50;;
16472;SDS011;8347;52.486;13.432;2024-02-26T10:48:12;15.55;;;9.07;;
16472;SDS011;8347;52.486;13.432;2024-02-26T10:50:59;15.18;;;9.50;;
16472;SDS011;8347;52.486;13.432;2024-02-26T10:53:46;14.13;;;8.43;;
16472;SDS011;8347;52.486;13.432;2024-02-26T10:56:34;11.48;;;8.15;;
16472;SDS011;8347;52.486;13.432;2024-02-26T10:59:23;9.75;;;7.60;;
16472;SDS011;8347;52.486;13.432;2024-02-26T11:02:10;14.35;;;7.47;;
16472;SDS011;8347;52.486;13.432;2024-02-26T11:04:59;12.68;;;8.75;;
16472;SDS011;8347;52.486;13.432;2024-02-26T11:07:46;14.18;;;8.48;;
16472;SDS011;8347;52.486;13.432;2024-02-26T11:10:34;13.77;;;9.35;;
16472;SDS011;8347;52.486;13.432;2024-02-26T11:13:21;12.38;;;8.32;;
16472;SDS011;8347;52.486;13.432;2024-02-26T11:16:08;12.63;;;8.57;;
16472;SDS011;8347;52.486;13.432;2024-02-26T11:18:55;15.50;;;7.97;;
16472;SDS011;8347;52.486;13.432;2024-02-26T11:21:42;12.50;;;8.50;;
16472;SDS011;8347;52.486;13.432;2024-02-26T11:24:28;11.00;;;8.35;;
16472;SDS011;8347;52.486;13.432;2024-02-26T11:27:15;11.10;;;7.95;;
16472;SDS011;8347;52.486;13.432;2024-02-26T11:30:04;10.55;;;6.95;;
16472;SDS011;8347;52.486;13.432;2024-02-26T11:32:54;10.45;;;7.40;;
16472;SDS011;8347;52.486;13.432;2024-02-26T11:35:41;10.13;;;7.13;;
16472;SDS011;8347;52.486;13.432;2024-02-26T11:38:27;11.43;;;7.45;;
16472;SDS011;8347;52.486;13.432;2024-02-26T11:41:15;10.25;;;7.13;;
16472;SDS011;8347;52.486;13.432;2024-02-26T11:44:02;13.30;;;7.93;;
16472;SDS011;8347;52.486;13.432;2024-02-26T11:46:50;13.02;;;7.78;;
16472;SDS011;8347;52.486;13.432;2024-02-26T11:49:36;13.15;;;8.05;;
16472;SDS011;8347;52.486;13.432;2024-02-26T11:52:23;11.60;;;7.70;;
16472;SDS011;8347;52.486;13.432;2024-02-26T11:55:09;11.63;;;7.35;;
16472;SDS011;8347;52.486;13.432;2024-02-26T11:57:56;10.75;;;7.72;;
16472;SDS011;8347;52.486;13.432;2024-02-26T12:00:43;10.95;;;7.28;;
16472;SDS011;8347;52.486;13.432;2024-02-26T12:03:29;13.18;;;8.05;;
16472;SDS011;8347;52.486;13.432;2024-02-26T12:06:16;9.10;;;6.97;;
16472;SDS011;8347;52.486;13.432;2024-02-26T12:09:04;13.05;;;7.78;;
16472;SDS011;8347;52.486;13.432;2024-02-26T12:11:51;11.77;;;7.78;;
16472;SDS011;8347;52.486;13.432;2024-02-26T12:14:41;11.13;;;7.43;;
16472;SDS011;8347;52.486;13.432;2024-02-26T12:17:41;9.27;;;6.95;;
16472;SDS011;8347;52.486;13.432;2024-02-26T12:20:28;9.52;;;6.85;;
16472;SDS011;8347;52.486;13.432;2024-02-26T12:23:15;9.68;;;6.88;;
16472;SDS011;8347;52.486;13.432;2024-02-26T12:26:03;11.02;;;7.25;;
16472;SDS011;8347;52.486;13.432;2024-02-26T12:28:49;12.23;;;8.10;;
16472;SDS011;8347;52.486;13.432;2024-02-26T12:31:36;7.65;;;5.90;;
16472;SDS011;8347;52.486;13.432;2024-02-26T12:34:22;9.25;;;6.30;;
16472;SDS011;8347;52.486;13.432;2024-02-26T12:37:09;8.40;;;5.38;;
16472;SDS011;8347;52.486;13.432;2024-02-26T12:39:56;7.40;;;5.65;;
16472;SDS011;8347;52.486;13.432;2024-02-26T12:42:43;10.65;;;5.80;;
16472;SDS011;8347;52.486;13.432;2024-02-26T12:45:29;12.25;;;7.63;;
16472;SDS011;8347;52.486;13.432;2024-02-26T12:48:17;18.98;;;9.88;;
16472;SDS011;8347;52.486;13.432;2024-02-26T12:51:04;13.32;;;8.32;;
16472;SDS011;8347;52.486;13.432;2024-02-26T12:53:51;11.45;;;7.97;;
16472;SDS011;8347;52.486;13.432;2024-02-26T12:56:38;10.48;;;6.82;;
16472;SDS011;8347;52.486;13.432;2024-02-26T12:59:25;11.20;;;7.68;;
16472;SDS011;8347;52.486;13.432;2024-02-26T13:02:11;10.60;;;7.55;;
16472;SDS011;8347;52.486;13.432;2024-02-26T13:04:58;12.77;;;8.98;;
16472;SDS011;8347;52.486;13.432;2024-02-26T13:07:47;14.27;;;7.05;;
16472;SDS011;8347;52.486;13.432;2024-02-26T13:10:34;9.45;;;7.07;;
16472;SDS011;8347;52.486;13.432;2024-02-26T13:13:20;13.32;;;8.38;;
16472;SDS011;8347;52.486;13.432;2024-02-26T13:16:09;11.43;;;6.90;;
16472;SDS011;8347;52.486;13.432;2024-02-26T13:18:56;10.57;;;7.78;;
16472;SDS011;8347;52.486;13.432;2024-02-26T13:21:43;11.25;;;6.80;;
16472;SDS011;8347;52.486;13.432;2024-02-26T13:24:29;8.85;;;7.28;;
16472;SDS011;8347;52.486;13.432;2024-02-26T13:27:21;8.88;;;6.90;;
16472;SDS011;8347;52.486;13.432;2024-02-26T13:30:10;10.65;;;6.72;;
16472;SDS011;8347;52.486;13.432;2024-02-26T13:32:57;10.85;;;6.03;;
16472;SDS011;8347;52.486;13.432;2024-02-26T13:35:54;10.57;;;6.43;;
16472;SDS011;8347;52.486;13.432;2024-02-26T13:38:41;9.90;;;6.70;;
16472;SDS011;8347;52.486;13.432;2024-02-26T13:41:37;10.48;;;5.55;;
16472;SDS011;8347;52.486;13.432;2024-02-26T13:44:26;7.70;;;5.55;;
16472;SDS011;8347;52.486;13.432;2024-02-26T13:47:13;8.82;;;5.93;;
16472;SDS011;8347;52.486;13.432;2024-02-26T13:50:00;7.53;;;5.18;;
16472;SDS011;8347;52.486;13.432;2024-02-26T13:52:47;9.93;;;6.07;;
16472;SDS011;8347;52.486;13.432;2024-02-26T13:55:39;10.48;;;5.55;;
16472;SDS011;8347;52.486;13.432;2024-02-26T13:58:28;8.23;;;5.68;;
16472;SDS011;8347;52.486;13.432;2024-02-26T14:01:15;9.35;;;6.05;;
16472;SDS011;8347;52.486;13.432;2024-02-26T14:04:02;9.15;;;6.07;;
16472;SDS011;8347;52.486;13.432;2024-02-26T14:06:50;8.43;;;5.60;;
16472;SDS011;8347;52.486;13.432;2024-02-26T14:09:36;9.10;;;6.32;;
16472;SDS011;8347;52.486;13.432;2024-02-26T14:12:23;8.93;;;6.13;;
16472;SDS011;8347;52.486;13.432;2024-02-26T14:15:10;8.77;;;5.18;;
16472;SDS011;8347;52.486;13.432;2024-02-26T14:17:56;9.95;;;5.38;;
16472;SDS011;8347;52.486;13.432;2024-02-26T14:20:43;7.82;;;6.03;;
16472;SDS011;8347;52.486;13.432;2024-02-26T14:23:30;10.52;;;6.38;;
16472;SDS011;8347;52.486;13.432;2024-02-26T14:26:17;8.43;;;5.53;;
16472;SDS011;8347;52.486;13.432;2024-02-26T14:29:04;9.38;;;6.10;;
16472;SDS011;8347;52.486;13.432;2024-02-26T14:31:50;8.75;;;6.28;;
16472;SDS011;8347;52.486;13.432;2024-02-26T14:34:36;8.77;;;5.78;;
16472;SDS011;8347;52.486;13.432;2024-02-26T14:37:23;9.07;;;6.32;;
16472;SDS011;8347;52.486;13.432;2024-02-26T14:40:10;11.90;;;6.55;;
16472;SDS011;8347;52.486;13.432;2024-02-26T14:42:56;8.95;;;6.25;;
16472;SDS011;8347;52.486;13.432;2024-02-26T14:45:45;10.18;;;6.53;;
16472;SDS011;8347;52.486;13.432;2024-02-26T14:48:32;8.57;;;6.07;;
16472;SDS011;8347;52.486;13.432;2024-02-26T14:51:18;14.93;;;6.60;;
16472;SDS011;8347;52.486;13.432;2024-02-26T14:54:04;11.23;;;7.72;;
16472;SDS011;8347;52.486;13.432;2024-02-26T14:56:51;11.57;;;7.22;;
16472;SDS011;8347;52.486;13.432;2024-02-26T14:59:37;9.75;;;6.65;;
16472;SDS011;8347;52.486;13.432;2024-02-26T15:02:24;12.00;;;6.85;;
16472;SDS011;8347;52.486;13.432;2024-02-26T15:05:11;10.82;;;7.13;;
16472;SDS011;8347;52.486;13.432;2024-02-26T15:07:57;18.35;;;7.30;;
16472;SDS011;8347;52.486;13.432;2024-02-26T15:10:44;10.13;;;6.63;;
16472;SDS011;8347;52.486;13.432;2024-02-26T15:13:35;11.85;;;6.97;;
16472;SDS011;8347;52.486;13.432;2024-02-26T15:16:22;12.93;;;6.15;;
16472;SDS011;8347;52.486;13.432;2024-02-26T15:19:09;11.48;;;6.85;;
16472;SDS011;8347;52.486;13.432;2024-02-26T15:21:55;13.85;;;6.90;;
16472;SDS011;8347;52.486;13.432;2024-02-26T15:24:43;11.38;;;6.90;;
16472;SDS011;8347;52.486;13.432;2024-02-26T15:27:30;11.43;;;7.00;;
16472;SDS011;8347;52.486;13.432;2024-02-26T15:30:16;9.77;;;6.78;;
16472;SDS011;8347;52.486;13.432;2024-02-26T15:33:03;15.57;;;7.45;;
16472;SDS011;8347;52.486;13.432;2024-02-26T15:35:50;12.52;;;6.53;;
16472;SDS011;8347;52.486;13.432;2024-02-26T15:38:37;12.05;;;6.60;;
16472;SDS011;8347;52.486;13.432;2024-02-26T15:41:25;12.15;;;6.88;;
16472;SDS011;8347;52.486;13.432;2024-02-26T15:44:12;11.77;;;7.57;;
16472;SDS011;8347;52.486;13.432;2024-02-26T15:46:58;17.38;;;7.90;;
16472;SDS011;8347;52.486;13.432;2024-02-26T15:49:45;12.48;;;8.75;;
16472;SDS011;8347;52.486;13.432;2024-02-26T15:52:32;12.40;;;7.75;;
16472;SDS011;8347;52.486;13.432;2024-02-26T15:55:19;10.35;;;7.75;;
16472;SDS011;8347;52.486;13.432;2024-02-26T15:58:09;13.32;;;8.93;;
16472;SDS011;8347;52.486;13.432;2024-02-26T16:00:56;12.75;;;8.55;;
16472;SDS011;8347;52.486;13.432;2024-02-26T16:03:42;14.43;;;9.07;;
16472;SDS011;8347;52.486;13.432;2024-02-26T16:06:31;13.50;;;9.43;;
16472;SDS011;8347;52.486;13.432;2024-02-26T16:09:19;14.68;;;9.82;;
16472;SDS011;8347;52.486;13.432;2024-02-26T16:12:09;13.45;;;8.98;;
16472;SDS011;8347;52.486;13.432;2024-02-26T16:15:03;13.82;;;9.82;;
16472;SDS011;8347;52.486;13.432;2024-02-26T16:17:50;14.70;;;10.52;;
16472;SDS011;8347;52.486;13.432;2024-02-26T16:20:40;16.38;;;10.00;;
16472;SDS011;8347;52.486;13.432;2024-02-26T16:23:27;16.98;;;10.40;;
16472;SDS011;8347;52.486;13.432;2024-02-26T16:26:13;18.55;;;9.73;;
16472;SDS011;8347;52.486;13.432;2024-02-26T16:28:59;17.05;;;10.70;;